Frank, North Carolina
Current Conditions -  °F | °C
As of 3:55 PM on Tuesday 21 Oct 2014 (Local Time) from KTNB Reporting Station
Scattered Clouds Scattered Clouds  
Wind Chill: 55°   Ceiling: Unl
Heat Index: 55°   Visibility: 10mi
Dew Point: 38°   Wind: 16mph
Humidity: 55%   Direction: 280°W
Pressure: 29.94"   Gusts: 29mph
Location:  36.0227°N, 81.9499°W
Report Text: KTNB 211955Z AUTO 28014G25KT 250V320 10SM SCT047 13/04 A2994 RMK AO2 T01250036
Loading
Personal Weather Stations






























Interactive Weather Map
Tropical Storm Tracking
New forecast layout! Learn more

10-Day Weather Forecast

Advertisements
Track Severe Weather on mobile